Hauptseite
METAR-TAF:

METAR-TAF

Flughäfen :

Harbin, China

Breite: 45-45N, Länge: 126-46E, Höhe: 143 m

Beobachtung

Neuester Wetterbericht von vor 34 Minuten, um 02:00 UTC
Wind 10 kt aus Südwest
Temperatur -6°C
Luftfeuchtigkeit 49%
Luftdruck 1022 hPa
Sichtweite 10 km oder mehr
keine Wolken unter 1500 m und keine Kumulonimbus oder Gewitterwolken

METAR: ZYHB 210200Z 23005MPS CAVOK M06/M15 Q1022 NOSIG

Zeit: 10:34 (02:34 UTC)

Prognose

Neuester Wetterbericht von vor 7 Stunden und 23 Minuten, um 19:11 UTC
Gültige Prognose vom 21 um 00 UTC bis 21 um 24 UTC
Wind 8 kt aus Südwest
Sichtweite: 6000 m
Aufgelockert bewölkt in der Höhe von 3000 ft

TAF: ZYHB 201911Z 2100/2124 22004MPS 6000 SCT030 TXM02/06Z TNM15/21Z

Wetterbeobachtungen und Prognosen von mehr als 4000 Flughäfen (METAR und TAF Bericht).

Die verfügbaren Stationen werden durch gelbe und rote Markierungen auf der Karte dargestellt.

Führen Sie die Maus auf sie, um den Namen der Station zu sehen.

Darauf klicken, um die Beobachtung von Wetterbeobachtungen und Prognosen zu sehen.

Um die Karte zu ändern : klicken Sie auf den grünen Tasten mit einem schwarzen Kreuz Zum Vergrößern, auf den grünen Button mit einem Gedankenstrich zu verkleinern, oder auf die grünen Pfeile für benachbarte Karten.


METAR-TAF: